Saline City, Indiana
Current Conditions -  °F | °C
As of 12:53 PM on Saturday 25 Oct 2014 (Local Time) from KHUF Reporting Station
Haze Haze  
Wind Chill: 70°   Ceiling: Unl
Heat Index: 70°   Visibility: 6mi
Dew Point: 57°   Wind: 7mph
Humidity: 63%   Direction: 300°WNW
Pressure: 29.99"   Gusts: NA
Location:  39.3787°N, 87.0992°W
Report Text: KHUF 251653Z 30006KT 6SM HZ CLR 21/14 A2999 RMK AO2 SLP156 T02110139
Loading
Personal Weather Stations






























Interactive Weather Map
Tropical Storm Tracking
New forecast layout! Learn more

10-Day Weather Forecast

Advertisements
Track Severe Weather on mobile